sensor_id;sensor_type;location;lat;lon;timestamp;temperature;humidity
51863;DHT22;37900;52.996;6.278;2024-01-11T00:02:19;15.20;68.00
51863;DHT22;37900;52.996;6.278;2024-01-11T00:04:45;15.20;68.60
51863;DHT22;37900;52.996;6.278;2024-01-11T00:07:10;15.20;68.00
51863;DHT22;37900;52.996;6.278;2024-01-11T00:09:42;15.10;67.90
51863;DHT22;37900;52.996;6.278;2024-01-11T00:12:09;15.10;67.90
51863;DHT22;37900;52.996;6.278;2024-01-11T00:14:35;15.10;68.00
51863;DHT22;37900;52.996;6.278;2024-01-11T00:17:01;15.10;68.00
51863;DHT22;37900;52.996;6.278;2024-01-11T00:19:27;15.10;68.00
51863;DHT22;37900;52.996;6.278;2024-01-11T00:21:52;15.10;67.90
51863;DHT22;37900;52.996;6.278;2024-01-11T00:24:18;15.10;67.80
51863;DHT22;37900;52.996;6.278;2024-01-11T00:26:44;15.10;67.70
51863;DHT22;37900;52.996;6.278;2024-01-11T00:29:10;15.10;67.50
51863;DHT22;37900;52.996;6.278;2024-01-11T00:31:35;15.10;67.40
51863;DHT22;37900;52.996;6.278;2024-01-11T00:34:01;15.10;67.40
51863;DHT22;37900;52.996;6.278;2024-01-11T00:36:27;15.10;67.30
51863;DHT22;37900;52.996;6.278;2024-01-11T00:38:54;15.10;67.30
51863;DHT22;37900;52.996;6.278;2024-01-11T00:41:19;15.10;67.30
51863;DHT22;37900;52.996;6.278;2024-01-11T00:43:45;15.10;67.30
51863;DHT22;37900;52.996;6.278;2024-01-11T00:46:11;15.10;67.30
51863;DHT22;37900;52.996;6.278;2024-01-11T00:48:37;15.10;67.30
51863;DHT22;37900;52.996;6.278;2024-01-11T00:51:06;15.00;67.20
51863;DHT22;37900;52.996;6.278;2024-01-11T00:53:31;15.00;67.20
51863;DHT22;37900;52.996;6.278;2024-01-11T00:55:58;15.00;67.30
51863;DHT22;37900;52.996;6.278;2024-01-11T00:58:23;15.00;67.10
51863;DHT22;37900;52.996;6.278;2024-01-11T01:00:49;15.00;66.90
51863;DHT22;37900;52.996;6.278;2024-01-11T01:03:15;15.00;67.00
51863;DHT22;37900;52.996;6.278;2024-01-11T01:05:42;15.00;66.80
51863;DHT22;37900;52.996;6.278;2024-01-11T01:08:07;15.30;66.90
51863;DHT22;37900;52.996;6.278;2024-01-11T01:10:33;15.00;66.70
51863;DHT22;37900;52.996;6.278;2024-01-11T01:12:59;15.00;66.70
51863;DHT22;37900;52.996;6.278;2024-01-11T01:15:25;15.00;66.70
51863;DHT22;37900;52.996;6.278;2024-01-11T01:17:50;15.00;66.70
51863;DHT22;37900;52.996;6.278;2024-01-11T01:20:16;15.00;66.70
51863;DHT22;37900;52.996;6.278;2024-01-11T01:22:42;15.00;66.80
51863;DHT22;37900;52.996;6.278;2024-01-11T01:25:07;15.00;66.80
51863;DHT22;37900;52.996;6.278;2024-01-11T01:27:33;14.90;66.70
51863;DHT22;37900;52.996;6.278;2024-01-11T01:29:59;14.90;66.70
51863;DHT22;37900;52.996;6.278;2024-01-11T01:32:24;14.90;66.50
51863;DHT22;37900;52.996;6.278;2024-01-11T01:34:50;14.90;66.40
51863;DHT22;37900;52.996;6.278;2024-01-11T01:37:16;14.90;66.30
51863;DHT22;37900;52.996;6.278;2024-01-11T01:39:41;15.00;66.30
51863;DHT22;37900;52.996;6.278;2024-01-11T01:42:07;14.90;66.20
51863;DHT22;37900;52.996;6.278;2024-01-11T01:44:34;15.00;66.20
51863;DHT22;37900;52.996;6.278;2024-01-11T01:47:00;14.90;66.20
51863;DHT22;37900;52.996;6.278;2024-01-11T01:49:26;14.90;66.20
51863;DHT22;37900;52.996;6.278;2024-01-11T01:51:53;14.90;66.30
51863;DHT22;37900;52.996;6.278;2024-01-11T01:54:19;14.90;66.30
51863;DHT22;37900;52.996;6.278;2024-01-11T01:56:46;14.90;66.20
51863;DHT22;37900;52.996;6.278;2024-01-11T01:59:12;14.90;66.40
51863;DHT22;37900;52.996;6.278;2024-01-11T02:01:39;14.90;66.20
51863;DHT22;37900;52.996;6.278;2024-01-11T02:04:05;14.90;66.20
51863;DHT22;37900;52.996;6.278;2024-01-11T02:06:33;14.90;66.00
51863;DHT22;37900;52.996;6.278;2024-01-11T02:09:01;14.90;66.00
51863;DHT22;37900;52.996;6.278;2024-01-11T02:11:28;14.90;65.90
51863;DHT22;37900;52.996;6.278;2024-01-11T02:13:55;14.90;65.90
51863;DHT22;37900;52.996;6.278;2024-01-11T02:16:21;14.90;65.80
51863;DHT22;37900;52.996;6.278;2024-01-11T02:18:46;14.90;65.80
51863;DHT22;37900;52.996;6.278;2024-01-11T02:21:14;14.90;65.90
51863;DHT22;37900;52.996;6.278;2024-01-11T02:26:28;14.80;65.90
51863;DHT22;37900;52.996;6.278;2024-01-11T02:28:54;14.80;66.00
51863;DHT22;37900;52.996;6.278;2024-01-11T02:31:19;14.80;66.00
51863;DHT22;37900;52.996;6.278;2024-01-11T02:33:45;14.80;65.90
51863;DHT22;37900;52.996;6.278;2024-01-11T02:36:11;14.80;65.70
51863;DHT22;37900;52.996;6.278;2024-01-11T02:38:38;14.80;65.70
51863;DHT22;37900;52.996;6.278;2024-01-11T02:41:07;14.80;65.60
51863;DHT22;37900;52.996;6.278;2024-01-11T02:43:33;14.80;65.60
51863;DHT22;37900;52.996;6.278;2024-01-11T02:46:02;14.80;65.60
51863;DHT22;37900;52.996;6.278;2024-01-11T02:48:28;14.80;65.60
51863;DHT22;37900;52.996;6.278;2024-01-11T02:50:58;14.40;65.30
51863;DHT22;37900;52.996;6.278;2024-01-11T02:53:24;14.80;65.60
51863;DHT22;37900;52.996;6.278;2024-01-11T02:55:50;14.80;65.60
51863;DHT22;37900;52.996;6.278;2024-01-11T02:58:16;14.80;65.70
51863;DHT22;37900;52.996;6.278;2024-01-11T03:00:42;14.80;65.70
51863;DHT22;37900;52.996;6.278;2024-01-11T03:03:08;14.80;65.70
51863;DHT22;37900;52.996;6.278;2024-01-11T03:05:33;14.80;65.70
51863;DHT22;37900;52.996;6.278;2024-01-11T03:07:59;14.70;65.50
51863;DHT22;37900;52.996;6.278;2024-01-11T03:10:25;14.70;65.40
51863;DHT22;37900;52.996;6.278;2024-01-11T03:12:50;14.70;65.30
51863;DHT22;37900;52.996;6.278;2024-01-11T03:15:16;14.80;65.40
51863;DHT22;37900;52.996;6.278;2024-01-11T03:17:42;14.80;65.40
51863;DHT22;37900;52.996;6.278;2024-01-11T03:20:08;14.80;65.30
51863;DHT22;37900;52.996;6.278;2024-01-11T03:22:33;14.80;65.30
51863;DHT22;37900;52.996;6.278;2024-01-11T03:24:59;14.80;65.30
51863;DHT22;37900;52.996;6.278;2024-01-11T03:27:25;14.80;65.30
51863;DHT22;37900;52.996;6.278;2024-01-11T03:29:51;14.80;65.30
51863;DHT22;37900;52.996;6.278;2024-01-11T03:32:17;14.80;65.40
51863;DHT22;37900;52.996;6.278;2024-01-11T03:34:42;14.70;65.40
51863;DHT22;37900;52.996;6.278;2024-01-11T03:37:08;14.70;65.30
51863;DHT22;37900;52.996;6.278;2024-01-11T03:39:34;14.40;65.20
51863;DHT22;37900;52.996;6.278;2024-01-11T03:42:00;14.70;65.20
51863;DHT22;37900;52.996;6.278;2024-01-11T03:44:28;14.70;65.20
51863;DHT22;37900;52.996;6.278;2024-01-11T03:46:54;14.70;65.10
51863;DHT22;37900;52.996;6.278;2024-01-11T03:49:19;14.70;65.00
51863;DHT22;37900;52.996;6.278;2024-01-11T03:51:45;14.70;65.00
51863;DHT22;37900;52.996;6.278;2024-01-11T03:54:11;14.70;65.00
51863;DHT22;37900;52.996;6.278;2024-01-11T03:56:39;14.70;65.00
51863;DHT22;37900;52.996;6.278;2024-01-11T03:59:05;14.70;65.60
51863;DHT22;37900;52.996;6.278;2024-01-11T04:01:32;14.70;65.00
51863;DHT22;37900;52.996;6.278;2024-01-11T04:03:58;14.70;65.00
51863;DHT22;37900;52.996;6.278;2024-01-11T04:06:24;14.70;65.00
51863;DHT22;37900;52.996;6.278;2024-01-11T04:08:50;14.70;65.00
51863;DHT22;37900;52.996;6.278;2024-01-11T04:11:16;14.70;65.10
51863;DHT22;37900;52.996;6.278;2024-01-11T04:13:43;14.60;65.00
51863;DHT22;37900;52.996;6.278;2024-01-11T04:16:08;14.60;65.00
51863;DHT22;37900;52.996;6.278;2024-01-11T04:18:34;14.60;64.90
51863;DHT22;37900;52.996;6.278;2024-01-11T04:21:00;14.60;64.90
51863;DHT22;37900;52.996;6.278;2024-01-11T04:23:26;14.60;64.80
51863;DHT22;37900;52.996;6.278;2024-01-11T04:25:51;14.60;64.70
51863;DHT22;37900;52.996;6.278;2024-01-11T04:28:17;14.60;64.70
51863;DHT22;37900;52.996;6.278;2024-01-11T04:30:43;14.70;64.80
51863;DHT22;37900;52.996;6.278;2024-01-11T04:33:09;14.60;64.70
51863;DHT22;37900;52.996;6.278;2024-01-11T04:35:35;14.60;64.70
51863;DHT22;37900;52.996;6.278;2024-01-11T04:38:01;14.60;64.60
51863;DHT22;37900;52.996;6.278;2024-01-11T04:40:27;14.60;64.70
51863;DHT22;37900;52.996;6.278;2024-01-11T04:42:53;14.50;64.60
51863;DHT22;37900;52.996;6.278;2024-01-11T04:45:18;14.60;64.60
51863;DHT22;37900;52.996;6.278;2024-01-11T04:47:44;14.60;64.60
51863;DHT22;37900;52.996;6.278;2024-01-11T04:50:10;14.60;64.50
51863;DHT22;37900;52.996;6.278;2024-01-11T04:52:35;14.60;64.50
51863;DHT22;37900;52.996;6.278;2024-01-11T04:55:01;14.60;64.50
51863;DHT22;37900;52.996;6.278;2024-01-11T04:57:27;14.60;64.30
51863;DHT22;37900;52.996;6.278;2024-01-11T04:59:53;14.60;64.40
51863;DHT22;37900;52.996;6.278;2024-01-11T05:02:22;14.60;64.50
51863;DHT22;37900;52.996;6.278;2024-01-11T05:04:48;14.50;64.40
51863;DHT22;37900;52.996;6.278;2024-01-11T05:07:13;14.80;64.60
51863;DHT22;37900;52.996;6.278;2024-01-11T05:09:39;14.60;64.40
51863;DHT22;37900;52.996;6.278;2024-01-11T05:12:05;14.60;64.50
51863;DHT22;37900;52.996;6.278;2024-01-11T05:14:31;14.60;64.40
51863;DHT22;37900;52.996;6.278;2024-01-11T05:16:57;14.60;64.40
51863;DHT22;37900;52.996;6.278;2024-01-11T05:19:23;14.60;64.60
51863;DHT22;37900;52.996;6.278;2024-01-11T05:21:49;14.50;64.30
51863;DHT22;37900;52.996;6.278;2024-01-11T05:24:14;14.50;64.20
51863;DHT22;37900;52.996;6.278;2024-01-11T05:26:40;14.40;64.20
51863;DHT22;37900;52.996;6.278;2024-01-11T05:29:06;14.50;64.20
51863;DHT22;37900;52.996;6.278;2024-01-11T05:31:31;14.60;64.30
51863;DHT22;37900;52.996;6.278;2024-01-11T05:33:57;14.50;64.20
51863;DHT22;37900;52.996;6.278;2024-01-11T05:36:23;14.50;64.20
51863;DHT22;37900;52.996;6.278;2024-01-11T05:38:48;14.50;64.20
51863;DHT22;37900;52.996;6.278;2024-01-11T05:41:14;14.50;64.20
51863;DHT22;37900;52.996;6.278;2024-01-11T05:43:40;14.50;64.20
51863;DHT22;37900;52.996;6.278;2024-01-11T05:46:07;14.50;64.20
51863;DHT22;37900;52.996;6.278;2024-01-11T05:48:33;14.50;63.80
51863;DHT22;37900;52.996;6.278;2024-01-11T05:50:59;14.50;64.20
51863;DHT22;37900;52.996;6.278;2024-01-11T05:53:25;14.50;64.20
51863;DHT22;37900;52.996;6.278;2024-01-11T05:55:53;14.50;64.20
51863;DHT22;37900;52.996;6.278;2024-01-11T05:58:19;14.50;64.40
51863;DHT22;37900;52.996;6.278;2024-01-11T06:00:45;14.60;64.40
51863;DHT22;37900;52.996;6.278;2024-01-11T06:03:14;14.50;64.30
51863;DHT22;37900;52.996;6.278;2024-01-11T06:05:40;14.60;64.30
51863;DHT22;37900;52.996;6.278;2024-01-11T06:08:06;14.50;64.20
51863;DHT22;37900;52.996;6.278;2024-01-11T06:10:33;14.60;64.20
51863;DHT22;37900;52.996;6.278;2024-01-11T06:12:58;14.60;64.20
51863;DHT22;37900;52.996;6.278;2024-01-11T06:15:24;14.50;64.20
51863;DHT22;37900;52.996;6.278;2024-01-11T06:17:50;14.60;64.20
51863;DHT22;37900;52.996;6.278;2024-01-11T06:20:16;14.50;64.20
51863;DHT22;37900;52.996;6.278;2024-01-11T06:22:42;14.50;64.10
51863;DHT22;37900;52.996;6.278;2024-01-11T06:25:08;14.50;64.20
51863;DHT22;37900;52.996;6.278;2024-01-11T06:27:34;14.50;64.20
51863;DHT22;37900;52.996;6.278;2024-01-11T06:29:59;14.50;64.20
51863;DHT22;37900;52.996;6.278;2024-01-11T06:32:25;14.50;64.20
51863;DHT22;37900;52.996;6.278;2024-01-11T06:34:51;14.50;64.30
51863;DHT22;37900;52.996;6.278;2024-01-11T06:37:17;14.50;64.30
51863;DHT22;37900;52.996;6.278;2024-01-11T06:39:42;14.50;64.30
51863;DHT22;37900;52.996;6.278;2024-01-11T06:42:08;14.50;64.30
51863;DHT22;37900;52.996;6.278;2024-01-11T06:44:34;14.50;64.40
51863;DHT22;37900;52.996;6.278;2024-01-11T06:46:59;14.50;64.30
51863;DHT22;37900;52.996;6.278;2024-01-11T06:49:27;14.50;64.40
51863;DHT22;37900;52.996;6.278;2024-01-11T06:51:52;14.50;64.10
51863;DHT22;37900;52.996;6.278;2024-01-11T06:54:18;14.50;64.40
51863;DHT22;37900;52.996;6.278;2024-01-11T06:56:43;14.40;64.40
51863;DHT22;37900;52.996;6.278;2024-01-11T06:59:09;14.50;64.40
51863;DHT22;37900;52.996;6.278;2024-01-11T07:01:35;14.50;65.10
51863;DHT22;37900;52.996;6.278;2024-01-11T07:04:01;14.40;64.40
51863;DHT22;37900;52.996;6.278;2024-01-11T07:06:26;14.40;64.40
51863;DHT22;37900;52.996;6.278;2024-01-11T07:08:52;14.40;64.60
51863;DHT22;37900;52.996;6.278;2024-01-11T07:11:18;14.50;64.70
51863;DHT22;37900;52.996;6.278;2024-01-11T07:13:43;14.50;65.20
51863;DHT22;37900;52.996;6.278;2024-01-11T07:16:09;14.40;65.70
51863;DHT22;37900;52.996;6.278;2024-01-11T07:18:35;14.50;66.20
51863;DHT22;37900;52.996;6.278;2024-01-11T07:21:00;14.50;66.50
51863;DHT22;37900;52.996;6.278;2024-01-11T07:23:27;14.50;67.20
51863;DHT22;37900;52.996;6.278;2024-01-11T07:25:53;14.50;67.80
51863;DHT22;37900;52.996;6.278;2024-01-11T07:28:18;14.60;68.10
51863;DHT22;37900;52.996;6.278;2024-01-11T07:30:45;14.60;67.80
51863;DHT22;37900;52.996;6.278;2024-01-11T07:33:11;14.60;67.70
51863;DHT22;37900;52.996;6.278;2024-01-11T07:35:37;14.60;67.70
51863;DHT22;37900;52.996;6.278;2024-01-11T07:38:03;14.60;67.70
51863;DHT22;37900;52.996;6.278;2024-01-11T07:40:29;14.60;67.70
51863;DHT22;37900;52.996;6.278;2024-01-11T07:42:55;14.60;67.80
51863;DHT22;37900;52.996;6.278;2024-01-11T07:45:21;14.70;67.90
51863;DHT22;37900;52.996;6.278;2024-01-11T07:47:46;14.70;67.90
51863;DHT22;37900;52.996;6.278;2024-01-11T07:50:12;14.70;67.90
51863;DHT22;37900;52.996;6.278;2024-01-11T07:52:39;14.70;67.90
51863;DHT22;37900;52.996;6.278;2024-01-11T07:55:07;14.70;67.90
51863;DHT22;37900;52.996;6.278;2024-01-11T07:57:34;14.70;68.00
51863;DHT22;37900;52.996;6.278;2024-01-11T08:00:00;14.80;68.20
51863;DHT22;37900;52.996;6.278;2024-01-11T08:02:26;14.80;68.20
51863;DHT22;37900;52.996;6.278;2024-01-11T08:04:52;14.80;68.20
51863;DHT22;37900;52.996;6.278;2024-01-11T08:07:18;14.80;68.30
51863;DHT22;37900;52.996;6.278;2024-01-11T08:09:44;14.90;68.40
51863;DHT22;37900;52.996;6.278;2024-01-11T08:12:12;14.90;68.40
51863;DHT22;37900;52.996;6.278;2024-01-11T08:14:41;14.90;68.50
51863;DHT22;37900;52.996;6.278;2024-01-11T08:17:12;14.90;68.50
51863;DHT22;37900;52.996;6.278;2024-01-11T08:19:39;14.90;68.60
51863;DHT22;37900;52.996;6.278;2024-01-11T08:22:06;14.90;68.60
51863;DHT22;37900;52.996;6.278;2024-01-11T08:24:32;15.00;68.70
51863;DHT22;37900;52.996;6.278;2024-01-11T08:26:57;15.00;68.70
51863;DHT22;37900;52.996;6.278;2024-01-11T08:29:23;15.00;68.80
51863;DHT22;37900;52.996;6.278;2024-01-11T08:31:49;15.10;68.90
51863;DHT22;37900;52.996;6.278;2024-01-11T08:34:15;15.10;69.00
51863;DHT22;37900;52.996;6.278;2024-01-11T08:36:40;15.10;69.60
51863;DHT22;37900;52.996;6.278;2024-01-11T08:39:06;15.10;69.00
51863;DHT22;37900;52.996;6.278;2024-01-11T08:41:33;15.10;69.10
51863;DHT22;37900;52.996;6.278;2024-01-11T08:43:59;15.10;69.10
51863;DHT22;37900;52.996;6.278;2024-01-11T08:46:25;15.20;69.20
51863;DHT22;37900;52.996;6.278;2024-01-11T08:48:54;15.20;69.20
51863;DHT22;37900;52.996;6.278;2024-01-11T08:51:22;15.20;69.30
51863;DHT22;37900;52.996;6.278;2024-01-11T08:53:49;15.20;69.40
51863;DHT22;37900;52.996;6.278;2024-01-11T08:56:14;15.20;69.50
51863;DHT22;37900;52.996;6.278;2024-01-11T08:58:42;15.30;69.80
51863;DHT22;37900;52.996;6.278;2024-01-11T09:01:08;15.30;70.10
51863;DHT22;37900;52.996;6.278;2024-01-11T09:03:34;15.30;70.20
51863;DHT22;37900;52.996;6.278;2024-01-11T09:06:02;15.40;70.40
51863;DHT22;37900;52.996;6.278;2024-01-11T09:08:28;15.40;70.60
51863;DHT22;37900;52.996;6.278;2024-01-11T09:10:54;15.50;70.80
51863;DHT22;37900;52.996;6.278;2024-01-11T09:13:19;15.50;70.80
51863;DHT22;37900;52.996;6.278;2024-01-11T09:15:45;15.50;70.90
51863;DHT22;37900;52.996;6.278;2024-01-11T09:18:11;15.50;71.00
51863;DHT22;37900;52.996;6.278;2024-01-11T09:20:36;15.60;71.10
51863;DHT22;37900;52.996;6.278;2024-01-11T09:23:02;15.60;71.10
51863;DHT22;37900;52.996;6.278;2024-01-11T09:25:31;15.60;71.20
51863;DHT22;37900;52.996;6.278;2024-01-11T09:27:57;15.60;71.80
51863;DHT22;37900;52.996;6.278;2024-01-11T09:30:23;15.70;71.40
51863;DHT22;37900;52.996;6.278;2024-01-11T09:32:48;15.70;71.30
51863;DHT22;37900;52.996;6.278;2024-01-11T09:35:14;15.70;71.40
51863;DHT22;37900;52.996;6.278;2024-01-11T09:37:40;15.80;71.50
51863;DHT22;37900;52.996;6.278;2024-01-11T09:40:06;15.80;71.50
51863;DHT22;37900;52.996;6.278;2024-01-11T09:42:39;15.80;71.60
51863;DHT22;37900;52.996;6.278;2024-01-11T09:45:10;15.80;71.50
51863;DHT22;37900;52.996;6.278;2024-01-11T09:47:39;15.80;71.60
51863;DHT22;37900;52.996;6.278;2024-01-11T09:50:05;15.90;71.60
51863;DHT22;37900;52.996;6.278;2024-01-11T09:52:31;15.90;71.70
51863;DHT22;37900;52.996;6.278;2024-01-11T09:54:58;15.90;71.70
51863;DHT22;37900;52.996;6.278;2024-01-11T09:57:26;15.90;71.70
51863;DHT22;37900;52.996;6.278;2024-01-11T09:59:55;15.90;71.70
51863;DHT22;37900;52.996;6.278;2024-01-11T10:02:26;16.00;71.80
51863;DHT22;37900;52.996;6.278;2024-01-11T10:04:55;16.00;71.80
51863;DHT22;37900;52.996;6.278;2024-01-11T10:07:24;16.00;71.90
51863;DHT22;37900;52.996;6.278;2024-01-11T10:09:51;16.00;71.90
51863;DHT22;37900;52.996;6.278;2024-01-11T10:12:20;16.00;72.00
51863;DHT22;37900;52.996;6.278;2024-01-11T10:14:48;16.10;72.00
51863;DHT22;37900;52.996;6.278;2024-01-11T10:17:14;16.10;72.00
51863;DHT22;37900;52.996;6.278;2024-01-11T10:19:40;16.20;72.10
51863;DHT22;37900;52.996;6.278;2024-01-11T10:22:06;16.10;72.10
51863;DHT22;37900;52.996;6.278;2024-01-11T10:24:32;16.20;72.10
51863;DHT22;37900;52.996;6.278;2024-01-11T10:26:58;16.10;72.10
51863;DHT22;37900;52.996;6.278;2024-01-11T10:29:36;16.20;72.10
51863;DHT22;37900;52.996;6.278;2024-01-11T10:32:05;16.20;72.10
51863;DHT22;37900;52.996;6.278;2024-01-11T10:34:31;16.20;72.00
51863;DHT22;37900;52.996;6.278;2024-01-11T10:36:57;16.30;72.10
51863;DHT22;37900;52.996;6.278;2024-01-11T10:39:25;16.30;72.10
51863;DHT22;37900;52.996;6.278;2024-01-11T10:41:53;16.30;72.10
51863;DHT22;37900;52.996;6.278;2024-01-11T10:44:21;16.20;72.00
51863;DHT22;37900;52.996;6.278;2024-01-11T10:46:49;16.30;72.10
51863;DHT22;37900;52.996;6.278;2024-01-11T10:49:19;16.30;72.10
51863;DHT22;37900;52.996;6.278;2024-01-11T10:52:09;16.30;72.10
51863;DHT22;37900;52.996;6.278;2024-01-11T10:54:34;16.30;72.10
51863;DHT22;37900;52.996;6.278;2024-01-11T10:57:00;16.40;72.20
51863;DHT22;37900;52.996;6.278;2024-01-11T10:59:29;16.30;72.20
51863;DHT22;37900;52.996;6.278;2024-01-11T11:01:58;16.40;72.20
51863;DHT22;37900;52.996;6.278;2024-01-11T11:04:27;16.40;72.30
51863;DHT22;37900;52.996;6.278;2024-01-11T11:06:57;16.40;72.30
51863;DHT22;37900;52.996;6.278;2024-01-11T11:09:27;16.40;72.20
51863;DHT22;37900;52.996;6.278;2024-01-11T11:11:58;16.40;72.30
51863;DHT22;37900;52.996;6.278;2024-01-11T11:14:25;16.40;72.20
51863;DHT22;37900;52.996;6.278;2024-01-11T11:16:52;16.40;72.20
51863;DHT22;37900;52.996;6.278;2024-01-11T11:19:19;16.40;72.20
51863;DHT22;37900;52.996;6.278;2024-01-11T11:21:46;16.40;72.30
51863;DHT22;37900;52.996;6.278;2024-01-11T11:24:12;16.40;72.20
51863;DHT22;37900;52.996;6.278;2024-01-11T11:26:38;16.40;72.20
51863;DHT22;37900;52.996;6.278;2024-01-11T11:29:04;16.40;72.20
51863;DHT22;37900;52.996;6.278;2024-01-11T11:31:44;16.40;72.20
51863;DHT22;37900;52.996;6.278;2024-01-11T11:34:19;16.40;72.20
51863;DHT22;37900;52.996;6.278;2024-01-11T11:36:50;16.50;72.30
51863;DHT22;37900;52.996;6.278;2024-01-11T11:39:20;16.50;72.30
51863;DHT22;37900;52.996;6.278;2024-01-11T11:41:47;16.50;72.30
51863;DHT22;37900;52.996;6.278;2024-01-11T11:44:16;16.50;72.50
51863;DHT22;37900;52.996;6.278;2024-01-11T11:46:42;16.50;72.60
51863;DHT22;37900;52.996;6.278;2024-01-11T11:49:09;16.60;72.80
51863;DHT22;37900;52.996;6.278;2024-01-11T11:51:39;16.60;73.70
51863;DHT22;37900;52.996;6.278;2024-01-11T11:54:05;16.60;73.20
51863;DHT22;37900;52.996;6.278;2024-01-11T11:56:32;16.60;73.20
51863;DHT22;37900;52.996;6.278;2024-01-11T11:59:00;16.60;73.30
51863;DHT22;37900;52.996;6.278;2024-01-11T12:01:27;16.60;73.30
51863;DHT22;37900;52.996;6.278;2024-01-11T12:03:52;16.60;73.30
51863;DHT22;37900;52.996;6.278;2024-01-11T12:06:20;16.60;73.30
51863;DHT22;37900;52.996;6.278;2024-01-11T12:08:47;16.60;73.40
51863;DHT22;37900;52.996;6.278;2024-01-11T12:11:14;16.60;73.40
51863;DHT22;37900;52.996;6.278;2024-01-11T12:13:41;16.60;73.20
51863;DHT22;37900;52.996;6.278;2024-01-11T12:16:07;16.60;73.20
51863;DHT22;37900;52.996;6.278;2024-01-11T12:18:32;16.60;73.20
51863;DHT22;37900;52.996;6.278;2024-01-11T12:20:59;16.60;73.20
51863;DHT22;37900;52.996;6.278;2024-01-11T12:23:25;16.60;73.10
51863;DHT22;37900;52.996;6.278;2024-01-11T12:25:56;16.60;73.20
51863;DHT22;37900;52.996;6.278;2024-01-11T12:28:23;16.60;73.30
51863;DHT22;37900;52.996;6.278;2024-01-11T12:30:48;16.70;73.50
51863;DHT22;37900;52.996;6.278;2024-01-11T12:33:15;16.60;73.50
51863;DHT22;37900;52.996;6.278;2024-01-11T12:35:41;16.60;73.60
51863;DHT22;37900;52.996;6.278;2024-01-11T12:38:07;16.70;73.80
51863;DHT22;37900;52.996;6.278;2024-01-11T12:40:36;16.60;73.70
51863;DHT22;37900;52.996;6.278;2024-01-11T12:43:05;16.60;73.60
51863;DHT22;37900;52.996;6.278;2024-01-11T12:45:34;16.60;73.70
51863;DHT22;37900;52.996;6.278;2024-01-11T12:48:00;16.60;73.60
51863;DHT22;37900;52.996;6.278;2024-01-11T12:50:30;16.60;73.60
51863;DHT22;37900;52.996;6.278;2024-01-11T12:53:10;16.60;73.60
51863;DHT22;37900;52.996;6.278;2024-01-11T12:55:42;16.60;73.50
51863;DHT22;37900;52.996;6.278;2024-01-11T12:58:08;16.60;73.50
51863;DHT22;37900;52.996;6.278;2024-01-11T13:00:35;16.60;73.40
51863;DHT22;37900;52.996;6.278;2024-01-11T13:03:02;16.60;73.40
51863;DHT22;37900;52.996;6.278;2024-01-11T13:05:28;16.60;73.70
51863;DHT22;37900;52.996;6.278;2024-01-11T13:07:54;16.60;73.60
51863;DHT22;37900;52.996;6.278;2024-01-11T13:10:20;16.60;73.60
51863;DHT22;37900;52.996;6.278;2024-01-11T13:12:45;16.60;73.70
51863;DHT22;37900;52.996;6.278;2024-01-11T13:15:11;16.60;73.80
51863;DHT22;37900;52.996;6.278;2024-01-11T13:17:38;16.70;73.90
51863;DHT22;37900;52.996;6.278;2024-01-11T13:20:04;16.60;74.00
51863;DHT22;37900;52.996;6.278;2024-01-11T13:22:30;16.70;74.20
51863;DHT22;37900;52.996;6.278;2024-01-11T13:24:55;16.70;74.20
51863;DHT22;37900;52.996;6.278;2024-01-11T13:27:21;16.60;74.10
51863;DHT22;37900;52.996;6.278;2024-01-11T13:29:47;16.70;74.00
51863;DHT22;37900;52.996;6.278;2024-01-11T13:32:13;16.60;74.00
51863;DHT22;37900;52.996;6.278;2024-01-11T13:34:38;16.60;73.90
51863;DHT22;37900;52.996;6.278;2024-01-11T13:37:04;16.60;73.80
51863;DHT22;37900;52.996;6.278;2024-01-11T13:39:31;16.60;73.80
51863;DHT22;37900;52.996;6.278;2024-01-11T13:41:56;16.60;73.80
51863;DHT22;37900;52.996;6.278;2024-01-11T13:44:22;16.60;73.80
51863;DHT22;37900;52.996;6.278;2024-01-11T13:46:48;16.60;73.70
51863;DHT22;37900;52.996;6.278;2024-01-11T13:49:13;16.60;73.70
51863;DHT22;37900;52.996;6.278;2024-01-11T13:51:39;16.60;73.70
51863;DHT22;37900;52.996;6.278;2024-01-11T13:54:05;16.60;73.70
51863;DHT22;37900;52.996;6.278;2024-01-11T13:56:31;16.60;73.60
51863;DHT22;37900;52.996;6.278;2024-01-11T13:58:57;16.60;73.60
51863;DHT22;37900;52.996;6.278;2024-01-11T14:01:23;16.60;73.60
51863;DHT22;37900;52.996;6.278;2024-01-11T14:03:49;16.60;73.80
51863;DHT22;37900;52.996;6.278;2024-01-11T14:06:15;16.60;73.90
51863;DHT22;37900;52.996;6.278;2024-01-11T14:08:40;16.70;73.90
51863;DHT22;37900;52.996;6.278;2024-01-11T14:11:06;16.70;73.90
51863;DHT22;37900;52.996;6.278;2024-01-11T14:13:32;16.70;73.90
51863;DHT22;37900;52.996;6.278;2024-01-11T14:15:58;16.60;73.90
51863;DHT22;37900;52.996;6.278;2024-01-11T14:18:24;16.70;74.00
51863;DHT22;37900;52.996;6.278;2024-01-11T14:20:50;16.70;74.10
51863;DHT22;37900;52.996;6.278;2024-01-11T14:23:15;16.70;74.10
51863;DHT22;37900;52.996;6.278;2024-01-11T14:25:41;16.70;74.10
51863;DHT22;37900;52.996;6.278;2024-01-11T14:28:07;16.70;74.00
51863;DHT22;37900;52.996;6.278;2024-01-11T14:30:33;16.70;74.00
51863;DHT22;37900;52.996;6.278;2024-01-11T14:33:00;16.70;73.90
51863;DHT22;37900;52.996;6.278;2024-01-11T14:35:25;16.70;73.90
51863;DHT22;37900;52.996;6.278;2024-01-11T14:37:51;16.70;73.90
51863;DHT22;37900;52.996;6.278;2024-01-11T14:40:18;16.70;73.90
51863;DHT22;37900;52.996;6.278;2024-01-11T14:42:44;16.70;73.90
51863;DHT22;37900;52.996;6.278;2024-01-11T14:45:09;16.70;73.90
51863;DHT22;37900;52.996;6.278;2024-01-11T14:47:35;16.70;73.90
51863;DHT22;37900;52.996;6.278;2024-01-11T14:50:01;16.70;73.90
51863;DHT22;37900;52.996;6.278;2024-01-11T14:52:29;16.70;74.00
51863;DHT22;37900;52.996;6.278;2024-01-11T14:54:56;16.70;73.90
51863;DHT22;37900;52.996;6.278;2024-01-11T14:57:22;16.70;73.90
51863;DHT22;37900;52.996;6.278;2024-01-11T14:59:48;16.70;73.90
51863;DHT22;37900;52.996;6.278;2024-01-11T15:02:15;16.70;73.90
51863;DHT22;37900;52.996;6.278;2024-01-11T15:04:40;16.70;74.00
51863;DHT22;37900;52.996;6.278;2024-01-11T15:07:06;16.80;74.30
51863;DHT22;37900;52.996;6.278;2024-01-11T15:09:33;16.70;74.50
51863;DHT22;37900;52.996;6.278;2024-01-11T15:11:59;16.80;75.20
51863;DHT22;37900;52.996;6.278;2024-01-11T15:14:25;16.80;75.00
51863;DHT22;37900;52.996;6.278;2024-01-11T15:16:51;16.80;74.80
51863;DHT22;37900;52.996;6.278;2024-01-11T15:19:17;16.80;74.80
51863;DHT22;37900;52.996;6.278;2024-01-11T15:21:45;16.80;74.80
51863;DHT22;37900;52.996;6.278;2024-01-11T15:24:11;16.80;74.80
51863;DHT22;37900;52.996;6.278;2024-01-11T15:26:37;16.80;74.80
51863;DHT22;37900;52.996;6.278;2024-01-11T15:29:03;16.80;74.80